Time;durP1;ratioP1;P1;durP2;ratioP2;P2;SDS_P1;SDS_P2;PMS_P1;PMS_P2;Temp;Humidity;BMP_temperature;BMP_pressure;BME280_temperature;BME280_humidity;BME280_pressure;Samples;Min_cycle;Max_cycle;Signal;HPM_P1;HPM_P2
2023/10/24 00:00:57;;;;;;;192.73;8.03;;;;;;;;;;4974376;28;20642;-56
2023/10/24 00:03:22;;;;;;;282.10;11.67;;;;;;;;;;4975927;28;20339;-56
2023/10/24 00:05:48;;;;;;;191.67;8.20;;;;;;;;;;4971971;28;20301;-54
2023/10/24 00:08:13;;;;;;;201.00;9.30;;;;;;;;;;4973972;28;20301;-55
2023/10/24 00:10:38;;;;;;;175.75;7.65;;;;;;;;;;4975668;28;20160;-56
2023/10/24 00:13:04;;;;;;;148.52;6.88;;;;;;;;;;4975073;28;20037;-55
2023/10/24 00:15:29;;;;;;;215.93;9.93;;;;;;;;;;4972359;28;20534;-56
2023/10/24 00:17:54;;;;;;;149.80;6.97;;;;;;;;;;4977449;28;20017;-54
2023/10/24 00:20:19;;;;;;;241.30;11.07;;;;;;;;;;4974714;28;20050;-54
2023/10/24 00:22:45;;;;;;;175.65;8.15;;;;;;;;;;4976938;28;20320;-54
2023/10/24 00:25:10;;;;;;;139.30;7.07;;;;;;;;;;4977185;28;20092;-57
2023/10/24 00:27:35;;;;;;;133.27;7.00;;;;;;;;;;4973776;28;20641;-55
2023/10/24 00:30:01;;;;;;;190.75;8.52;;;;;;;;;;4977447;28;20042;-55
2023/10/24 00:32:26;;;;;;;221.75;9.93;;;;;;;;;;4965037;28;20035;-56
2023/10/24 00:34:51;;;;;;;137.02;7.00;;;;;;;;;;4979039;28;20021;-56
2023/10/24 00:37:16;;;;;;;240.77;11.07;;;;;;;;;;4976292;28;20482;-54
2023/10/24 00:39:42;;;;;;;170.63;7.63;;;;;;;;;;4979909;28;20309;-56
2023/10/24 00:42:07;;;;;;;167.85;7.93;;;;;;;;;;4979253;28;20270;-56
2023/10/24 00:44:32;;;;;;;149.67;7.37;;;;;;;;;;4978088;28;20097;-57
2023/10/24 00:46:58;;;;;;;157.77;7.80;;;;;;;;;;4979663;28;20277;-55
2023/10/24 00:49:23;;;;;;;234.00;9.88;;;;;;;;;;4979391;28;20383;-55
2023/10/24 00:51:48;;;;;;;154.75;7.18;;;;;;;;;;4979758;28;20041;-55
2023/10/24 00:54:14;;;;;;;125.45;6.60;;;;;;;;;;4978164;28;20218;-55
2023/10/24 00:56:42;;;;;;;212.52;9.65;;;;;;;;;;4978262;28;20501;-56
2023/10/24 00:59:08;;;;;;;180.02;8.32;;;;;;;;;;4977899;28;20327;-56
2023/10/24 01:01:33;;;;;;;195.93;8.25;;;;;;;;;;4976599;28;20133;-55
2023/10/24 01:03:59;;;;;;;255.25;10.20;;;;;;;;;;4977508;28;20246;-55
2023/10/24 01:06:25;;;;;;;225.93;9.85;;;;;;;;;;4977046;28;20038;-55
2023/10/24 01:08:50;;;;;;;185.75;8.15;;;;;;;;;;4977190;28;20025;-55
2023/10/24 01:11:15;;;;;;;190.48;8.32;;;;;;;;;;4976843;28;20434;-57
2023/10/24 01:13:41;;;;;;;218.70;8.63;;;;;;;;;;4976124;28;20413;-56
2023/10/24 01:16:06;;;;;;;168.77;7.43;;;;;;;;;;4976306;28;20041;-56
2023/10/24 01:18:31;;;;;;;255.80;10.82;;;;;;;;;;4975697;28;20536;-55
2023/10/24 01:20:57;;;;;;;225.23;9.25;;;;;;;;;;4975458;28;20042;-56
2023/10/24 01:23:22;;;;;;;264.17;11.63;;;;;;;;;;4973085;28;20104;-55
2023/10/24 01:25:48;;;;;;;205.02;8.73;;;;;;;;;;4976369;28;20689;-56
2023/10/24 01:28:14;;;;;;;196.43;8.52;;;;;;;;;;4979395;28;20025;-56
2023/10/24 01:30:39;;;;;;;171.00;7.40;;;;;;;;;;4974358;28;20042;-56
2023/10/24 01:33:05;;;;;;;188.35;8.95;;;;;;;;;;4977094;28;20106;-56
2023/10/24 01:35:30;;;;;;;268.65;11.85;;;;;;;;;;4974832;28;20343;-56
2023/10/24 01:37:55;;;;;;;205.60;8.75;;;;;;;;;;4977520;28;20068;-55
2023/10/24 01:40:21;;;;;;;227.05;9.77;;;;;;;;;;4976702;28;20637;-56
2023/10/24 01:42:46;;;;;;;174.18;7.72;;;;;;;;;;4974971;28;20461;-55
2023/10/24 01:45:11;;;;;;;200.90;8.45;;;;;;;;;;4974956;28;20030;-56
2023/10/24 01:47:37;;;;;;;155.73;7.43;;;;;;;;;;4975941;28;20045;-55
2023/10/24 01:50:03;;;;;;;194.23;8.03;;;;;;;;;;4976586;28;20022;-55
2023/10/24 01:52:28;;;;;;;230.95;10.45;;;;;;;;;;4976955;28;20830;-55
2023/10/24 01:54:53;;;;;;;209.45;8.70;;;;;;;;;;4975697;28;20121;-55
2023/10/24 01:57:19;;;;;;;244.63;10.07;;;;;;;;;;4977138;28;20341;-56
2023/10/24 01:59:44;;;;;;;170.45;7.68;;;;;;;;;;4958954;28;20034;-56
2023/10/24 02:02:09;;;;;;;182.43;7.90;;;;;;;;;;4973867;28;20728;-55
2023/10/24 02:04:35;;;;;;;295.35;12.20;;;;;;;;;;4975007;28;20207;-54
2023/10/24 02:07:00;;;;;;;199.93;8.45;;;;;;;;;;4976260;28;20046;-55
2023/10/24 02:09:27;;;;;;;172.43;17.58;;;;;;;;;;4974904;28;20057;-56
2023/10/24 02:11:52;;;;;;;172.60;7.80;;;;;;;;;;4972894;28;20042;-57
2023/10/24 02:14:18;;;;;;;177.65;8.55;;;;;;;;;;4978026;28;20023;-56
2023/10/24 02:16:43;;;;;;;173.50;8.13;;;;;;;;;;4974011;28;20041;-57
2023/10/24 02:19:08;;;;;;;187.25;8.25;;;;;;;;;;4977148;28;20348;-55
2023/10/24 02:21:33;;;;;;;320.70;13.43;;;;;;;;;;4971255;28;20406;-56
2023/10/24 02:23:59;;;;;;;212.23;9.45;;;;;;;;;;4974508;28;20420;-56
2023/10/24 02:26:24;;;;;;;215.35;9.77;;;;;;;;;;4975644;28;20046;-55
2023/10/24 02:28:49;;;;;;;184.98;8.57;;;;;;;;;;4975751;28;20366;-56
2023/10/24 02:31:14;;;;;;;157.02;7.97;;;;;;;;;;4974805;28;20502;-56
2023/10/24 02:33:40;;;;;;;186.05;8.30;;;;;;;;;;4974035;28;20054;-56
2023/10/24 02:36:13;;;;;;;172.05;8.07;;;;;;;;;;4974192;28;20568;-55
2023/10/24 02:38:39;;;;;;;219.63;9.98;;;;;;;;;;4976502;28;20142;-55
2023/10/24 02:41:04;;;;;;;170.70;8.20;;;;;;;;;;4975667;28;20220;-56
2023/10/24 02:43:29;;;;;;;241.90;10.27;;;;;;;;;;4975001;28;20022;-54
2023/10/24 02:45:56;;;;;;;179.43;8.43;;;;;;;;;;4974326;28;20378;-56
2023/10/24 02:48:21;;;;;;;162.23;7.75;;;;;;;;;;4974676;28;20044;-55
2023/10/24 02:50:55;;;;;;;199.50;9.13;;;;;;;;;;4974680;28;20418;-56
2023/10/24 02:53:21;;;;;;;160.25;7.60;;;;;;;;;;4975164;28;20101;-56
2023/10/24 02:55:47;;;;;;;213.13;9.52;;;;;;;;;;4975104;28;20403;-56
2023/10/24 02:58:13;;;;;;;140.60;7.63;;;;;;;;;;4976754;28;20018;-54
2023/10/24 03:00:38;;;;;;;252.68;11.80;;;;;;;;;;4974759;28;20022;-55
2023/10/24 03:03:03;;;;;;;181.73;8.63;;;;;;;;;;4977158;28;20034;-56
2023/10/24 03:05:28;;;;;;;233.40;10.35;;;;;;;;;;4975131;28;20383;-56
2023/10/24 03:07:54;;;;;;;198.75;9.23;;;;;;;;;;4977030;28;20105;-55
2023/10/24 03:10:19;;;;;;;207.50;9.63;;;;;;;;;;4974347;28;20180;-55
2023/10/24 03:12:44;;;;;;;162.02;7.90;;;;;;;;;;4973772;28;20126;-56
2023/10/24 03:15:10;;;;;;;140.43;7.68;;;;;;;;;;4971537;28;20599;-56
2023/10/24 03:17:35;;;;;;;313.92;14.13;;;;;;;;;;4971875;28;20028;-55
2023/10/24 03:20:00;;;;;;;182.70;8.65;;;;;;;;;;4973302;28;20118;-56
2023/10/24 03:22:25;;;;;;;236.57;10.38;;;;;;;;;;4972910;28;20034;-57
2023/10/24 03:24:50;;;;;;;159.23;7.70;;;;;;;;;;4975354;28;20302;-57
2023/10/24 03:27:17;;;;;;;226.67;9.70;;;;;;;;;;4973804;28;20270;-56
2023/10/24 03:29:42;;;;;;;158.18;7.97;;;;;;;;;;4971929;28;20297;-56
2023/10/24 03:32:08;;;;;;;147.50;7.78;;;;;;;;;;4973338;28;20078;-56
2023/10/24 03:34:36;;;;;;;279.92;12.05;;;;;;;;;;4968834;28;20540;-56
2023/10/24 03:37:02;;;;;;;183.50;8.98;;;;;;;;;;4973313;28;20045;-55
2023/10/24 03:39:27;;;;;;;311.73;13.45;;;;;;;;;;4974818;28;20518;-55
2023/10/24 03:41:53;;;;;;;221.40;9.68;;;;;;;;;;4975259;28;20554;-55
2023/10/24 03:44:18;;;;;;;137.70;7.38;;;;;;;;;;4977016;28;20030;-55
2023/10/24 03:46:43;;;;;;;146.87;7.47;;;;;;;;;;4974254;28;20034;-56
2023/10/24 03:49:08;;;;;;;193.75;8.63;;;;;;;;;;4975110;28;20795;-55
2023/10/24 03:51:34;;;;;;;296.48;12.68;;;;;;;;;;4970825;28;20030;-56
2023/10/24 03:53:59;;;;;;;218.43;9.43;;;;;;;;;;4974233;28;20248;-56
2023/10/24 03:56:25;;;;;;;208.82;9.23;;;;;;;;;;4971331;28;20936;-59
2023/10/24 03:58:51;;;;;;;188.40;8.88;;;;;;;;;;4974123;28;20401;-55
2023/10/24 04:01:16;;;;;;;196.93;9.13;;;;;;;;;;4973939;28;20495;-57
2023/10/24 04:03:41;;;;;;;191.20;9.35;;;;;;;;;;4973896;28;21105;-57
2023/10/24 04:06:13;;;;;;;168.20;8.10;;;;;;;;;;4974494;28;20042;-57
2023/10/24 04:08:39;;;;;;;277.35;12.07;;;;;;;;;;4974000;28;20029;-57
2023/10/24 04:11:11;;;;;;;191.50;10.07;;;;;;;;;;4977535;28;20027;-57
2023/10/24 04:13:36;;;;;;;301.77;14.43;;;;;;;;;;4978868;28;20061;-55
2023/10/24 04:16:01;;;;;;;173.95;10.40;;;;;;;;;;4979184;28;20065;-55
2023/10/24 04:18:27;;;;;;;159.80;9.37;;;;;;;;;;4976025;28;20383;-55
2023/10/24 04:20:52;;;;;;;215.75;10.68;;;;;;;;;;4977695;28;20282;-55
2023/10/24 04:23:18;;;;;;;184.80;9.40;;;;;;;;;;4980252;28;20449;-56
2023/10/24 04:25:43;;;;;;;269.88;13.30;;;;;;;;;;4975800;28;20033;-57
2023/10/24 04:28:09;;;;;;;191.23;9.93;;;;;;;;;;4979886;28;20018;-56
2023/10/24 04:30:34;;;;;;;307.63;14.10;;;;;;;;;;4974699;28;20038;-57
2023/10/24 04:32:59;;;;;;;192.05;9.35;;;;;;;;;;4973124;28;20451;-56
2023/10/24 04:35:24;;;;;;;219.47;10.03;;;;;;;;;;4976101;28;20036;-56
2023/10/24 04:37:50;;;;;;;189.93;9.00;;;;;;;;;;4977744;28;20494;-55
2023/10/24 04:40:15;;;;;;;208.70;9.80;;;;;;;;;;4976605;28;20022;-55
2023/10/24 04:42:40;;;;;;;275.27;12.98;;;;;;;;;;4976945;28;20020;-55
2023/10/24 04:45:07;;;;;;;184.88;9.00;;;;;;;;;;4977325;28;20050;-56
2023/10/24 04:47:32;;;;;;;186.70;9.10;;;;;;;;;;4975908;28;20121;-56
2023/10/24 04:49:57;;;;;;;209.05;9.63;;;;;;;;;;4977904;28;20312;-55
2023/10/24 04:52:22;;;;;;;188.27;8.87;;;;;;;;;;4976127;28;20026;-57
2023/10/24 04:54:48;;;;;;;176.73;8.90;;;;;;;;;;4975386;28;20927;-56
2023/10/24 04:57:13;;;;;;;239.43;10.67;;;;;;;;;;4977057;28;20291;-57
2023/10/24 04:59:38;;;;;;;322.07;13.97;;;;;;;;;;4974283;28;20348;-56
2023/10/24 05:02:04;;;;;;;194.02;9.13;;;;;;;;;;4976125;28;20381;-56
2023/10/24 05:04:29;;;;;;;290.00;11.80;;;;;;;;;;4975369;28;20030;-55
2023/10/24 05:06:55;;;;;;;234.75;10.57;;;;;;;;;;4977238;28;20134;-55
2023/10/24 05:09:21;;;;;;;174.32;8.80;;;;;;;;;;4977150;28;20032;-55
2023/10/24 05:11:47;;;;;;;336.90;14.63;;;;;;;;;;4975309;28;20510;-56
2023/10/24 05:14:12;;;;;;;216.90;9.73;;;;;;;;;;4974543;28;20050;-54
2023/10/24 05:16:38;;;;;;;268.08;12.05;;;;;;;;;;4976618;28;20033;-56
2023/10/24 05:19:03;;;;;;;222.45;9.80;;;;;;;;;;4976486;28;20112;-55
2023/10/24 05:21:28;;;;;;;211.05;10.02;;;;;;;;;;4974773;28;20419;-54
2023/10/24 05:23:53;;;;;;;200.07;9.93;;;;;;;;;;4977202;28;20035;-56
2023/10/24 05:26:19;;;;;;;204.80;9.75;;;;;;;;;;4975171;28;20050;-55
2023/10/24 05:28:45;;;;;;;272.75;12.85;;;;;;;;;;4975716;28;20250;-55
2023/10/24 05:31:10;;;;;;;211.63;9.68;;;;;;;;;;4976352;28;20062;-56
2023/10/24 05:33:35;;;;;;;348.33;14.87;;;;;;;;;;4974497;28;20109;-55
2023/10/24 05:36:01;;;;;;;223.35;10.45;;;;;;;;;;4975956;28;20313;-56
2023/10/24 05:38:26;;;;;;;187.48;9.65;;;;;;;;;;4975172;28;20022;-56
2023/10/24 05:40:52;;;;;;;204.50;9.77;;;;;;;;;;4974233;28;20579;-55
2023/10/24 05:43:17;;;;;;;228.80;10.38;;;;;;;;;;4976522;28;20704;-54
2023/10/24 05:45:42;;;;;;;282.17;12.77;;;;;;;;;;4976962;28;20036;-55
2023/10/24 05:48:07;;;;;;;200.10;9.82;;;;;;;;;;4977297;28;20441;-56
2023/10/24 05:50:36;;;;;;;236.43;10.37;;;;;;;;;;4978230;28;20038;-56
2023/10/24 05:53:02;;;;;;;203.38;9.52;;;;;;;;;;4977261;28;20504;-55
2023/10/24 05:55:27;;;;;;;190.85;8.88;;;;;;;;;;4977621;28;20042;-57
2023/10/24 05:57:52;;;;;;;211.50;10.07;;;;;;;;;;4978003;28;20462;-56
2023/10/24 06:00:18;;;;;;;217.77;9.68;;;;;;;;;;4976109;28;20288;-55
2023/10/24 06:02:43;;;;;;;196.93;9.48;;;;;;;;;;4977293;28;20042;-56
2023/10/24 06:05:09;;;;;;;257.80;11.13;;;;;;;;;;4976050;28;20080;-58
2023/10/24 06:07:34;;;;;;;256.90;11.27;;;;;;;;;;4975879;28;20313;-56
2023/10/24 06:09:59;;;;;;;209.45;9.68;;;;;;;;;;4977386;28;20026;-56
2023/10/24 06:12:26;;;;;;;200.48;12.23;;;;;;;;;;4968425;28;20073;-55
2023/10/24 06:14:52;;;;;;;233.35;10.40;;;;;;;;;;4976680;28;20022;-55
2023/10/24 06:17:17;;;;;;;203.80;9.85;;;;;;;;;;4977809;28;20045;-55
2023/10/24 06:19:43;;;;;;;285.60;12.65;;;;;;;;;;4976992;28;20519;-55
2023/10/24 06:22:08;;;;;;;215.65;10.30;;;;;;;;;;4977942;28;20092;-55
2023/10/24 06:24:34;;;;;;;207.10;9.80;;;;;;;;;;4978990;28;20018;-55
2023/10/24 06:26:59;;;;;;;233.23;10.48;;;;;;;;;;4974233;28;20052;-55
2023/10/24 06:29:25;;;;;;;189.55;9.50;;;;;;;;;;4976840;28;20037;-56
2023/10/24 06:31:50;;;;;;;236.90;10.38;;;;;;;;;;4974391;28;20039;-55
2023/10/24 06:34:15;;;;;;;221.95;10.30;;;;;;;;;;4978315;28;20081;-55
2023/10/24 06:36:40;;;;;;;236.93;11.27;;;;;;;;;;4976876;28;20041;-56
2023/10/24 06:39:06;;;;;;;122.25;7.97;;;;;;;;;;4978633;28;20207;-58
2023/10/24 06:41:32;;;;;;;194.52;8.80;;;;;;;;;;4976710;28;20585;-57
2023/10/24 06:43:57;;;;;;;243.25;11.05;;;;;;;;;;4978915;28;20162;-55
2023/10/24 06:46:24;;;;;;;155.05;8.10;;;;;;;;;;4978839;28;20030;-57
2023/10/24 06:48:50;;;;;;;183.32;8.85;;;;;;;;;;4978946;28;20030;-57
2023/10/24 06:51:16;;;;;;;173.13;8.40;;;;;;;;;;4977712;28;20113;-57
2023/10/24 06:53:41;;;;;;;203.50;10.13;;;;;;;;;;4981261;28;20024;-57
2023/10/24 06:56:06;;;;;;;153.23;8.55;;;;;;;;;;4977122;28;20470;-56
2023/10/24 06:58:32;;;;;;;190.40;9.27;;;;;;;;;;4979147;28;20166;-56
2023/10/24 07:00:57;;;;;;;158.82;8.38;;;;;;;;;;4979311;28;20113;-57
2023/10/24 07:03:23;;;;;;;186.50;9.13;;;;;;;;;;4977492;28;20014;-56
2023/10/24 07:05:48;;;;;;;204.63;10.50;;;;;;;;;;4980208;28;20023;-57
2023/10/24 07:08:14;;;;;;;105.10;7.78;;;;;;;;;;4985015;28;20045;-57
2023/10/24 07:10:39;;;;;;;142.15;7.80;;;;;;;;;;4981771;28;20124;-57
2023/10/24 07:13:04;;;;;;;118.80;7.20;;;;;;;;;;4981762;28;20360;-57
2023/10/24 07:15:29;;;;;;;122.43;7.83;;;;;;;;;;4983698;28;20253;-56
2023/10/24 07:17:54;;;;;;;133.77;7.73;;;;;;;;;;4982429;28;20261;-57
2023/10/24 07:20:20;;;;;;;120.53;7.83;;;;;;;;;;4981748;28;20258;-57
2023/10/24 07:22:45;;;;;;;165.55;8.95;;;;;;;;;;4981401;28;20264;-57
2023/10/24 07:25:11;;;;;;;125.87;7.33;;;;;;;;;;4981000;28;20493;-57
2023/10/24 07:27:36;;;;;;;187.18;9.13;;;;;;;;;;4982613;28;20260;-57
2023/10/24 07:30:01;;;;;;;109.43;7.05;;;;;;;;;;4982210;28;20019;-57
2023/10/24 07:32:27;;;;;;;114.13;7.15;;;;;;;;;;4981354;28;20692;-57
2023/10/24 07:34:55;;;;;;;191.73;9.35;;;;;;;;;;4982425;28;20034;-57
2023/10/24 07:37:21;;;;;;;113.28;6.80;;;;;;;;;;4982107;28;20022;-56
2023/10/24 07:39:46;;;;;;;168.57;8.95;;;;;;;;;;4981047;28;20049;-56
2023/10/24 07:42:11;;;;;;;112.60;6.70;;;;;;;;;;4979419;28;20512;-56
2023/10/24 07:44:37;;;;;;;142.00;8.05;;;;;;;;;;4983794;28;20452;-57
2023/10/24 07:47:02;;;;;;;102.67;7.17;;;;;;;;;;4982140;28;20041;-56
2023/10/24 07:49:27;;;;;;;144.18;7.97;;;;;;;;;;4983119;28;20389;-56
2023/10/24 07:51:52;;;;;;;185.83;9.77;;;;;;;;;;4980420;28;20042;-57
2023/10/24 07:54:18;;;;;;;110.63;6.93;;;;;;;;;;4981374;28;20249;-57
2023/10/24 07:56:43;;;;;;;144.40;7.93;;;;;;;;;;4980278;28;20126;-56
2023/10/24 07:59:08;;;;;;;132.77;7.47;;;;;;;;;;4981541;28;20026;-57
2023/10/24 08:01:34;;;;;;;138.10;8.45;;;;;;;;;;4979063;28;20034;-54
2023/10/24 08:03:59;;;;;;;165.23;8.73;;;;;;;;;;4985069;28;20042;-56
2023/10/24 08:06:25;;;;;;;148.60;7.72;;;;;;;;;;4983537;28;20410;-57
2023/10/24 08:08:50;;;;;;;104.85;6.43;;;;;;;;;;4982424;28;20516;-57
2023/10/24 08:11:15;;;;;;;133.90;7.33;;;;;;;;;;4978944;28;20034;-56
2023/10/24 08:13:40;;;;;;;178.20;8.88;;;;;;;;;;4981126;28;20309;-56
2023/10/24 08:16:09;;;;;;;101.20;6.20;;;;;;;;;;4979070;28;20023;-57
2023/10/24 08:18:34;;;;;;;119.25;6.65;;;;;;;;;;4983176;28;20253;-57
2023/10/24 08:20:59;;;;;;;150.05;7.80;;;;;;;;;;4979650;28;20041;-54
2023/10/24 08:23:25;;;;;;;112.50;6.72;;;;;;;;;;4981549;28;20065;-55
2023/10/24 08:25:51;;;;;;;164.85;8.15;;;;;;;;;;4981503;28;20180;-55
2023/10/24 08:28:16;;;;;;;137.35;7.47;;;;;;;;;;4987703;28;20109;-56
2023/10/24 08:30:41;;;;;;;171.80;8.90;;;;;;;;;;4981158;28;20525;-55
2023/10/24 08:33:06;;;;;;;142.93;7.78;;;;;;;;;;4981937;28;20258;-55
2023/10/24 08:35:32;;;;;;;131.50;7.63;;;;;;;;;;4977849;28;20344;-55
2023/10/24 08:37:57;;;;;;;93.70;7.10;;;;;;;;;;4982296;28;20421;-54
2023/10/24 08:40:23;;;;;;;105.65;7.07;;;;;;;;;;4981432;28;20014;-56
2023/10/24 08:42:48;;;;;;;172.65;9.30;;;;;;;;;;4980256;28;20015;-55
2023/10/24 08:45:16;;;;;;;89.80;6.20;;;;;;;;;;4977403;28;20023;-55
2023/10/24 08:47:43;;;;;;;122.38;7.47;;;;;;;;;;4980702;28;20479;-55
2023/10/24 08:50:08;;;;;;;103.28;6.57;;;;;;;;;;4978719;28;20132;-55
2023/10/24 08:52:34;;;;;;;134.57;7.70;;;;;;;;;;4970215;28;20022;-55
2023/10/24 08:55:06;;;;;;;129.38;7.70;;;;;;;;;;4983423;28;20558;-55
2023/10/24 08:57:39;;;;;;;159.82;8.05;;;;;;;;;;4985900;28;20520;-55
2023/10/24 09:00:07;;;;;;;85.97;6.32;;;;;;;;;;4984127;28;20085;-55
2023/10/24 09:02:33;;;;;;;132.80;7.70;;;;;;;;;;4982384;28;20035;-56
2023/10/24 09:04:59;;;;;;;146.75;8.30;;;;;;;;;;4983890;28;20158;-56
2023/10/24 09:07:24;;;;;;;99.85;6.30;;;;;;;;;;4982918;28;20034;-55
2023/10/24 09:09:50;;;;;;;156.60;8.38;;;;;;;;;;4983003;28;20085;-55
2023/10/24 09:12:15;;;;;;;114.30;7.28;;;;;;;;;;4981498;28;20060;-55
2023/10/24 09:14:44;;;;;;;110.13;6.93;;;;;;;;;;4983109;28;20542;-56
2023/10/24 09:17:11;;;;;;;157.95;8.52;;;;;;;;;;4982273;28;20122;-56
2023/10/24 09:19:39;;;;;;;149.52;8.38;;;;;;;;;;4982052;28;20490;-55
2023/10/24 09:22:05;;;;;;;112.93;6.70;;;;;;;;;;4986413;28;20149;-55
2023/10/24 09:24:30;;;;;;;130.10;7.72;;;;;;;;;;4982997;28;20468;-56
2023/10/24 09:26:56;;;;;;;182.10;9.90;;;;;;;;;;4982516;28;20046;-55
2023/10/24 09:29:24;;;;;;;113.13;7.22;;;;;;;;;;4987597;28;20112;-56
2023/10/24 09:31:50;;;;;;;149.60;8.57;;;;;;;;;;4982082;28;20474;-55
2023/10/24 09:34:18;;;;;;;151.05;8.35;;;;;;;;;;4982069;28;20080;-57
2023/10/24 09:36:44;;;;;;;175.05;9.55;;;;;;;;;;4984395;28;20029;-55
2023/10/24 09:39:10;;;;;;;103.55;7.55;;;;;;;;;;4984710;28;20731;-57
2023/10/24 09:41:36;;;;;;;96.45;6.93;;;;;;;;;;4983665;28;20605;-57
2023/10/24 09:44:01;;;;;;;136.20;7.90;;;;;;;;;;4981717;28;20021;-56
2023/10/24 09:46:27;;;;;;;146.27;8.40;;;;;;;;;;4982734;28;20402;-55
2023/10/24 09:48:55;;;;;;;155.70;8.85;;;;;;;;;;4983502;28;20026;-55
2023/10/24 09:51:21;;;;;;;143.00;7.82;;;;;;;;;;4981757;28;20559;-55
2023/10/24 09:53:46;;;;;;;204.88;10.20;;;;;;;;;;4981685;28;20022;-55
2023/10/24 09:56:12;;;;;;;96.68;6.53;;;;;;;;;;4983577;28;20459;-55
2023/10/24 09:58:41;;;;;;;146.98;8.05;;;;;;;;;;4982848;28;20022;-55
2023/10/24 10:01:06;;;;;;;178.38;9.27;;;;;;;;;;4981399;28;20037;-55
2023/10/24 10:03:34;;;;;;;118.88;6.90;;;;;;;;;;4985311;28;20358;-55
2023/10/24 10:06:04;;;;;;;138.30;7.68;;;;;;;;;;4980893;28;20126;-55
2023/10/24 10:08:30;;;;;;;128.70;7.68;;;;;;;;;;4985710;28;20401;-54
2023/10/24 10:10:56;;;;;;;170.25;9.05;;;;;;;;;;4980478;28;20341;-55
2023/10/24 10:13:27;;;;;;;99.18;6.88;;;;;;;;;;4985712;28;20014;-56
2023/10/24 10:16:00;;;;;;;155.83;8.83;;;;;;;;;;4982080;28;20563;-55
2023/10/24 10:18:29;;;;;;;109.15;7.47;;;;;;;;;;4981319;28;20029;-55
2023/10/24 10:21:13;;;;;;;210.93;11.23;;;;;;;;;;4977774;28;20034;-54
2023/10/24 10:23:57;;;;;;;129.27;8.13;;;;;;;;;;4982701;28;20109;-55
2023/10/24 10:26:25;;;;;;;135.70;11.73;;;;;;;;;;4980348;28;20038;-56
2023/10/24 10:28:53;;;;;;;199.98;13.05;;;;;;;;;;4979672;28;20029;-55
2023/10/24 10:31:25;;;;;;;159.98;10.15;;;;;;;;;;4980547;28;20030;-55
2023/10/24 10:33:50;;;;;;;215.98;11.75;;;;;;;;;;4982145;28;20057;-55
2023/10/24 10:36:17;;;;;;;175.70;10.35;;;;;;;;;;4982516;28;20050;-55
2023/10/24 10:38:45;;;;;;;141.90;9.23;;;;;;;;;;4979069;28;20392;-55
2023/10/24 10:41:34;;;;;;;189.38;10.98;;;;;;;;;;4979022;28;20663;-55
2023/10/24 10:44:00;;;;;;;232.88;12.93;;;;;;;;;;4976550;28;20034;-55
2023/10/24 10:46:27;;;;;;;150.90;10.25;;;;;;;;;;4979343;28;20038;-55
2023/10/24 10:48:52;;;;;;;248.55;12.93;;;;;;;;;;4977286;28;20125;-56
2023/10/24 10:51:22;;;;;;;119.28;9.30;;;;;;;;;;4980926;28;20086;-55
2023/10/24 10:53:53;;;;;;;282.20;14.82;;;;;;;;;;4977831;28;20034;-56
2023/10/24 10:56:30;;;;;;;146.82;9.45;;;;;;;;;;4979705;28;20038;-55
2023/10/24 10:59:12;;;;;;;217.55;12.57;;;;;;;;;;4976401;28;20034;-54
2023/10/24 11:01:56;;;;;;;165.80;10.98;;;;;;;;;;4979699;28;20069;-54
2023/10/24 11:04:21;;;;;;;223.15;12.65;;;;;;;;;;4979275;28;20023;-54
2023/10/24 11:06:50;;;;;;;200.20;12.50;;;;;;;;;;4980885;28;20388;-55
2023/10/24 11:09:15;;;;;;;149.57;11.35;;;;;;;;;;4977826;28;20070;-54
2023/10/24 11:11:41;;;;;;;178.70;12.13;;;;;;;;;;4978599;28;20030;-55
2023/10/24 11:14:15;;;;;;;179.07;13.05;;;;;;;;;;4980298;28;20041;-59
2023/10/24 11:16:42;;;;;;;179.13;13.82;;;;;;;;;;4978858;28;20026;-55
2023/10/24 11:19:08;;;;;;;121.20;12.23;;;;;;;;;;4978991;28;20838;-56
2023/10/24 11:21:34;;;;;;;184.77;14.13;;;;;;;;;;4979562;28;20042;-55
2023/10/24 11:23:59;;;;;;;246.52;17.05;;;;;;;;;;4977530;28;20037;-55
2023/10/24 11:26:25;;;;;;;189.75;14.60;;;;;;;;;;4979020;28;20042;-55
2023/10/24 11:28:51;;;;;;;255.02;17.55;;;;;;;;;;4977991;28;20030;-56
2023/10/24 11:31:21;;;;;;;172.13;14.85;;;;;;;;;;4980329;28;20053;-56
2023/10/24 11:33:47;;;;;;;212.85;15.77;;;;;;;;;;4979662;28;20017;-55
2023/10/24 11:36:12;;;;;;;200.85;14.65;;;;;;;;;;4980942;28;20113;-55
2023/10/24 11:38:37;;;;;;;206.35;16.00;;;;;;;;;;4978325;28;20385;-55
2023/10/24 11:41:02;;;;;;;160.60;13.67;;;;;;;;;;4979408;28;20072;-55
2023/10/24 11:43:29;;;;;;;195.85;14.98;;;;;;;;;;4979032;28;20249;-55
2023/10/24 11:45:55;;;;;;;239.68;16.83;;;;;;;;;;4976094;28;20620;-55
2023/10/24 11:48:20;;;;;;;163.43;13.32;;;;;;;;;;4977715;28;20018;-55
2023/10/24 11:50:46;;;;;;;184.10;14.68;;;;;;;;;;4975846;28;20375;-55
2023/10/24 11:53:11;;;;;;;175.00;14.57;;;;;;;;;;4978027;28;20076;-55
2023/10/24 11:55:37;;;;;;;160.45;12.95;;;;;;;;;;4979140;28;20192;-55
2023/10/24 11:58:05;;;;;;;263.58;17.52;;;;;;;;;;4975611;28;20256;-55
2023/10/24 12:00:33;;;;;;;170.43;14.32;;;;;;;;;;4974834;28;20031;-55
2023/10/24 12:03:04;;;;;;;227.43;15.23;;;;;;;;;;4976571;28;20026;-56
2023/10/24 12:05:30;;;;;;;115.90;11.32;;;;;;;;;;4977902;28;20172;-55
2023/10/24 12:07:56;;;;;;;209.48;15.07;;;;;;;;;;4976337;28;20129;-59
2023/10/24 12:10:22;;;;;;;166.30;13.77;;;;;;;;;;4978218;28;20018;-55
2023/10/24 12:12:47;;;;;;;187.50;15.30;;;;;;;;;;4977682;28;20113;-55
2023/10/24 12:15:14;;;;;;;166.95;14.63;;;;;;;;;;4975714;28;20376;-55
2023/10/24 12:17:42;;;;;;;173.75;15.82;;;;;;;;;;4977904;28;20042;-55
2023/10/24 12:20:08;;;;;;;87.50;11.50;;;;;;;;;;4975445;28;20042;-54
2023/10/24 12:22:34;;;;;;;144.00;12.68;;;;;;;;;;4977667;28;20391;-54
2023/10/24 12:24:59;;;;;;;250.00;16.80;;;;;;;;;;4976243;28;20034;-54
2023/10/24 12:27:24;;;;;;;141.63;14.15;;;;;;;;;;4977369;28;20082;-53
2023/10/24 12:29:49;;;;;;;190.80;15.43;;;;;;;;;;4977448;28;20034;-54
2023/10/24 12:32:15;;;;;;;190.30;16.20;;;;;;;;;;4982708;28;20495;-53
2023/10/24 12:34:41;;;;;;;132.35;13.20;;;;;;;;;;4980829;28;20630;-54
2023/10/24 12:37:06;;;;;;;129.80;13.88;;;;;;;;;;4981841;28;20542;-54
2023/10/24 12:39:31;;;;;;;155.88;12.48;;;;;;;;;;4981259;28;20505;-54
2023/10/24 12:41:57;;;;;;;247.05;16.10;;;;;;;;;;4981077;28;20061;-55
2023/10/24 12:44:22;;;;;;;156.88;14.23;;;;;;;;;;4981545;28;20026;-55
2023/10/24 12:46:47;;;;;;;170.43;13.80;;;;;;;;;;4981523;28;20038;-54
2023/10/24 12:49:12;;;;;;;212.02;15.68;;;;;;;;;;4981748;28;20296;-54
2023/10/24 12:51:37;;;;;;;115.60;12.80;;;;;;;;;;4983068;28;20450;-54
2023/10/24 12:54:03;;;;;;;277.63;18.57;;;;;;;;;;4978470;28;20097;-54
2023/10/24 12:56:28;;;;;;;179.25;15.60;;;;;;;;;;4981896;28;20265;-54
2023/10/24 12:58:54;;;;;;;233.85;17.73;;;;;;;;;;4980478;28;20086;-54
2023/10/24 13:01:20;;;;;;;200.63;16.30;;;;;;;;;;4980167;28;20034;-54
2023/10/24 13:03:47;;;;;;;158.15;15.02;;;;;;;;;;4980065;28;20027;-54
2023/10/24 13:06:13;;;;;;;150.82;14.45;;;;;;;;;;4979879;28;20510;-55
2023/10/24 13:08:38;;;;;;;142.85;14.35;;;;;;;;;;4984976;28;20117;-54
2023/10/24 13:11:04;;;;;;;286.45;19.90;;;;;;;;;;4980570;28;20093;-54
2023/10/24 13:13:29;;;;;;;157.15;14.48;;;;;;;;;;4983541;28;20141;-54
2023/10/24 13:15:54;;;;;;;229.33;17.00;;;;;;;;;;4981610;28;20414;-53
2023/10/24 13:18:20;;;;;;;180.95;17.08;;;;;;;;;;4982810;28;20250;-53
2023/10/24 13:20:45;;;;;;;127.45;14.32;;;;;;;;;;4980034;28;20084;-53
2023/10/24 13:23:10;;;;;;;183.13;17.73;;;;;;;;;;4977938;28;20018;-54
2023/10/24 13:25:36;;;;;;;238.63;19.77;;;;;;;;;;4979135;28;20366;-54
2023/10/24 13:28:01;;;;;;;256.40;20.90;;;;;;;;;;4978723;28;20026;-54
2023/10/24 13:30:28;;;;;;;203.93;18.30;;;;;;;;;;4981429;28;20327;-54
2023/10/24 13:32:53;;;;;;;226.43;18.58;;;;;;;;;;4970141;28;20288;-55
2023/10/24 13:35:19;;;;;;;149.32;16.17;;;;;;;;;;4980388;28;20026;-54
2023/10/24 13:37:44;;;;;;;171.02;16.27;;;;;;;;;;4981719;28;20030;-53
2023/10/24 13:40:09;;;;;;;171.40;17.73;;;;;;;;;;4979561;28;20474;-55
2023/10/24 13:42:35;;;;;;;156.38;16.65;;;;;;;;;;4979458;28;20015;-55
2023/10/24 13:45:00;;;;;;;205.07;17.95;;;;;;;;;;4979638;28;20065;-54
2023/10/24 13:47:25;;;;;;;180.75;16.77;;;;;;;;;;4979741;28;20375;-53
2023/10/24 13:49:52;;;;;;;149.32;16.27;;;;;;;;;;4979555;28;20045;-56
2023/10/24 13:52:17;;;;;;;120.40;15.55;;;;;;;;;;4979910;28;20109;-57
2023/10/24 13:54:42;;;;;;;157.60;16.27;;;;;;;;;;4980175;28;20364;-54
2023/10/24 13:57:08;;;;;;;199.68;16.25;;;;;;;;;;4979395;28;20137;-55
2023/10/24 13:59:33;;;;;;;149.60;16.08;;;;;;;;;;4980480;28;20032;-55
2023/10/24 14:01:59;;;;;;;270.40;19.23;;;;;;;;;;4977012;28;20122;-54
2023/10/24 14:04:24;;;;;;;154.77;14.38;;;;;;;;;;4977279;28;20026;-55